Latest Weather Observations for Charleville

IDQ60801

Issued at 6:02 pm EST Wednesday 4 May 2016 (issued every 30 minutes, with the page automatically refreshed every 10 minutes)

About weather observations | Map of weather stations | Latest weather observations for QLD | Other Formats
Station Details ID: 044021 Name: CHARLEVILLE AERO Lat: -26.41 Lon: 146.26 Height: 301.6 m
Data from the previous 72 hours. | See also: Recent months at Charleville
Date/Time
EST
Temp
°C
App
Temp
°C
Dew
Point
Rel
Hum
%
Delta-T
°C
Wind Press
QNH
hPa
Press
MSL
hPa
Rain
since 9 am
mm
Dir
 
Spd
km/h
Gust
km/h
Spd
kts
Gust
kts
04/06:00pm 21.2 19.7 8.6 44 6.7 ESE 6 6 3 3 1016.8 1016.5 0.0
04/05:30pm 23.9 21.7 5.2 30 9.5 ESE 6 9 3 5 1016.6 - 0.0
04/05:00pm 25.9 23.6 2.8 22 11.4 SSE 4 11 2 6 1016.4 - 0.0
04/04:30pm 25.5 24.0 2.9 23 11.2 CALM 0 6 0 3 1016.1 - 0.0
04/04:00pm 25.7 22.7 1.7 21 11.6 ESE 7 13 4 7 1016.0 - 0.0
04/03:30pm 26.2 23.3 2.6 21 11.7 ESE 7 17 4 9 1016.1 - 0.0
04/03:00pm 25.2 22.2 1.7 21 11.3 S 7 13 4 7 1016.2 1015.9 0.0
04/02:30pm 25.7 22.0 2.5 22 11.4 S 11 19 6 10 1016.4 - 0.0
04/02:00pm 25.1 21.0 2.4 23 11.1 ESE 13 17 7 9 1016.7 - 0.0
04/01:30pm 24.9 20.7 1.9 22 11.1 SE 13 19 7 10 1017.1 - 0.0
04/01:00pm 25.0 19.9 3.1 24 10.8 ESE 19 24 10 13 1017.3 - 0.0
04/12:30pm 24.7 19.5 2.7 24 10.8 S 19 24 10 13 1017.9 - 0.0
04/12:00pm 24.5 20.0 4.0 26 10.3 SE 17 22 9 12 1018.5 1018.2 0.0
04/11:30am 23.4 20.0 3.8 28 9.7 SE 11 19 6 10 1018.9 - 0.0
04/11:00am 23.0 18.4 3.7 28 9.5 SSE 17 22 9 12 1019.4 - 0.0
04/10:30am 22.7 19.0 4.7 31 9.0 SSE 13 22 7 12 1019.6 - 0.0
04/10:00am 21.6 17.9 4.7 33 8.4 SSE 13 19 7 10 1019.9 - 0.0
04/09:30am 20.3 18.0 7.4 43 6.7 SSE 9 19 5 10 1019.9 - 0.0
04/09:00am 18.5 18.4 9.6 56 4.8 CALM 0 0 0 0 1020.1 1019.8 0.0
04/08:30am 16.5 16.7 10.5 67 3.2 CALM 0 0 0 0 1020.1 - 0.0
04/08:00am 14.4 14.8 11.3 81 1.7 CALM 0 2 0 1 1019.8 - 0.0
04/07:30am 12.9 13.3 11.3 90 0.9 CALM 0 0 0 0 1019.5 - 0.0
04/07:00am 10.5 10.5 9.9 96 0.3 CALM 0 0 0 0 1019.0 - 0.0
04/06:30am 10.1 10.0 9.6 97 0.3 CALM 0 0 0 0 1018.4 - 0.0
04/06:00am 10.4 10.4 9.7 95 0.4 CALM 0 0 0 0 1018.0 1017.8 0.0
04/05:30am 10.8 10.9 10.2 96 0.3 CALM 0 0 0 0 1017.6 - 0.0
04/05:00am 11.0 11.1 10.2 95 0.4 CALM 0 0 0 0 1017.3 - 0.0
04/04:30am 11.4 10.5 10.6 95 0.4 SSE 6 7 3 4 1017.2 - 0.0
04/04:00am 11.8 12.1 11.0 95 0.4 CALM 0 0 0 0 1017.0 - 0.0
04/03:30am 12.2 12.6 11.4 95 0.4 CALM 0 2 0 1 1017.1 - 0.0
04/03:00am 12.5 12.8 10.9 90 0.8 CALM 0 0 0 0 1016.8 1016.5 0.0
04/02:30am 13.3 13.9 11.8 91 0.8 CALM 0 0 0 0 1016.8 - 0.0
04/02:00am 13.5 12.6 11.5 88 1.1 SSW 7 7 4 4 1016.5 - 0.0
04/01:30am 14.1 14.9 12.4 89 0.9 CALM 0 0 0 0 1016.8 - 0.0
04/01:00am 14.9 15.9 13.1 89 1.0 CALM 0 0 0 0 1016.7 - 0.0
04/12:30am 15.5 16.2 12.1 80 1.9 CALM 0 0 0 0 1016.5 - 0.0
04/12:00am 16.8 17.7 12.8 77 2.3 CALM 0 0 0 0 1016.9 1016.6 0.0
 
Date/Time
EST
Temp
°C
App
Temp
°C
Dew
Point
Rel
Hum
%
Delta-T
°C
Wind Press
QNH
hPa
Press
MSL
hPa
Rain
since 9 am
mm
Dir
 
Spd
km/h
Gust
km/h
Spd
kts
Gust
kts
03/11:30pm 17.9 17.4 12.7 71 2.9 SSW 7 7 4 4 1016.7 - 0.0
03/11:00pm 18.4 17.9 12.7 69 3.2 SSW 7 9 4 5 1016.8 - 0.0
03/10:30pm 18.9 18.7 13.5 71 3.1 W 7 9 4 5 1017.0 - 0.0
03/10:00pm 19.4 19.0 13.1 67 3.6 SSW 7 13 4 7 1016.6 - 0.0
03/09:30pm 19.1 20.3 15.0 77 2.4 WSW 2 9 1 5 1016.7 - 0.0
03/09:00pm 19.4 20.1 14.5 73 2.9 SW 4 7 2 4 1016.3 1016.0 0.0
03/08:30pm 19.1 20.8 15.3 78 2.3 CALM 0 0 0 0 1016.2 - 0.0
03/08:00pm 19.6 21.3 15.2 76 2.6 CALM 0 0 0 0 1016.0 - 0.0
03/07:30pm 19.9 21.6 15.2 74 2.8 CALM 0 0 0 0 1015.9 - 0.0
03/07:00pm 20.9 21.4 14.9 68 3.6 SW 6 7 3 4 1015.7 - 0.0
03/06:30pm 21.5 21.2 13.3 59 4.8 SW 7 9 4 5 1015.6 - 0.0
03/06:00pm 22.0 21.2 13.0 56 5.2 SW 9 13 5 7 1015.2 1014.9 0.0
03/05:30pm 22.6 21.7 13.7 57 5.2 SSW 11 13 6 7 1015.0 - 0.0
03/05:00pm 23.1 22.7 14.2 57 5.3 SSW 9 15 5 8 1014.8 - 0.0
03/04:30pm 23.7 23.1 14.7 57 5.4 SW 11 15 6 8 1014.4 - 0.0
03/04:00pm 24.2 24.1 15.0 56 5.6 WSW 9 13 5 7 1014.0 - 0.0
03/03:30pm 24.3 23.5 14.1 53 6.1 W 11 15 6 8 1013.9 - 0.0
03/03:00pm 24.6 24.0 14.5 53 6.1 W 11 20 6 11 1013.8 1013.5 0.0
03/02:30pm 24.8 23.9 13.7 50 6.6 WNW 11 15 6 8 1013.7 - 0.0
03/02:00pm 24.9 23.8 14.4 52 6.3 WNW 13 17 7 9 1013.8 - 0.0
03/01:30pm 24.8 23.7 14.2 51 6.4 W 13 22 7 12 1014.3 - 0.0
03/01:00pm 24.8 24.6 15.8 57 5.5 W 11 19 6 10 1014.5 - 0.0
03/12:30pm 24.2 24.3 16.4 61 4.8 W 11 17 6 9 1015.2 - 0.0
03/12:00pm 24.0 24.6 16.9 64 4.4 WNW 9 17 5 9 1015.4 1015.1 0.0
03/11:30am 24.1 25.4 17.0 64 4.4 NNW 6 13 3 7 1015.8 - 0.0
03/11:00am 23.6 25.2 17.8 70 3.7 WNW 6 11 3 6 1016.2 - 0.0
03/10:30am 22.8 24.0 17.3 71 3.4 NNW 7 11 4 6 1016.5 - 0.0
03/10:16am 22.9 24.7 18.3 75 2.9 N 6 9 3 5 1016.7 - 0.0
03/10:10am 22.6 24.2 17.8 74 3.0 NNW 6 9 3 5 1016.6 - 0.0
03/09:55am 22.0 24.4 18.9 82 2.0 N 4 9 2 5 1016.7 - 0.0
03/09:30am 21.5 24.1 18.5 83 1.9 ENE 2 7 1 4 1016.7 - 0.0
03/09:13am 21.5 24.5 18.4 82 2.0 CALM 0 0 0 0 1016.9 - 0.0
03/09:00am 20.8 24.0 18.9 89 1.2 CALM 0 0 0 0 1016.9 1016.6 18.4
03/08:30am 20.0 23.2 18.8 93 0.8 CALM 0 0 0 0 1016.7 - 18.4
03/08:03am 19.7 22.9 18.8 94 0.6 CALM 0 0 0 0 1016.7 - 18.4
03/08:00am 19.6 22.8 18.8 95 0.5 CALM 0 0 0 0 1016.7 - 18.4
03/07:30am 19.2 22.3 18.6 96 0.4 CALM 0 0 0 0 1016.5 - 18.2
03/07:08am 19.2 22.3 18.7 97 0.3 CALM 0 0 0 0 1016.3 - 18.2
03/07:00am 19.2 22.3 18.7 97 0.3 CALM 0 0 0 0 1016.2 - 18.2
03/06:30am 19.1 22.2 18.7 98 0.3 CALM 0 0 0 0 1015.9 - 18.2
03/06:07am 19.1 21.5 18.7 98 0.3 WSW 4 7 2 4 1015.5 - 18.2
03/06:00am 19.1 21.5 18.7 98 0.3 W 4 6 2 3 1015.6 1015.3 18.2
03/05:30am 19.0 20.9 18.5 97 0.3 WNW 6 7 3 4 1015.3 - 18.2
03/05:00am 19.0 20.7 18.5 97 0.3 NW 7 7 4 4 1015.0 - 18.2
03/04:30am 18.8 20.6 18.3 97 0.3 WNW 6 7 3 4 1014.8 - 18.2
03/04:00am 18.7 20.3 18.2 97 0.3 NW 7 7 4 4 1014.8 - 18.2
03/03:30am 18.7 20.2 18.1 96 0.4 NW 7 7 4 4 1014.7 - 18.2
03/03:00am 18.5 20.0 18.1 97 0.2 N 7 11 4 6 1014.8 1014.4 18.2
03/02:37am 18.4 21.3 18.1 98 0.2 CALM 0 0 0 0 1014.9 - 18.2
03/02:30am 18.4 21.3 18.1 98 0.2 CALM 0 0 0 0 1014.9 - 18.2
03/02:00am 18.5 21.4 18.1 97 0.2 CALM 0 0 0 0 1014.8 - 18.2
03/01:30am 18.8 21.8 18.4 98 0.3 CALM 0 0 0 0 1015.4 - 18.2
03/01:00am 18.8 21.8 18.4 98 0.3 CALM 0 0 0 0 1015.6 - 18.2
03/12:30am 18.9 21.9 18.5 98 0.3 CALM 0 0 0 0 1015.8 - 18.2
03/12:00am 18.9 22.0 18.6 98 0.2 CALM 0 0 0 0 1016.1 1015.8 18.2
 
Date/Time
EST
Temp
°C
App
Temp
°C
Dew
Point
Rel
Hum
%
Delta-T
°C
Wind Press
QNH
hPa
Press
MSL
hPa
Rain
since 9 am
mm
Dir
 
Spd
km/h
Gust
km/h
Spd
kts
Gust
kts
02/11:30pm 19.1 21.1 18.7 98 0.3 N 6 7 3 4 1016.3 - 18.0
02/11:00pm 19.2 22.3 18.7 97 0.3 CALM 0 6 0 3 1016.7 - 18.0
02/10:30pm 19.3 21.4 18.9 98 0.3 N 6 7 3 4 1016.7 - 18.0
02/10:00pm 19.2 21.0 18.8 98 0.3 ENE 7 9 4 5 1016.3 - 18.0
02/09:30pm 19.4 21.8 18.9 97 0.3 NNE 4 7 2 4 1016.5 - 18.0
02/09:00pm 19.4 21.5 18.9 97 0.3 NNE 6 9 3 5 1016.7 1016.4 18.0
02/08:30pm 19.4 21.8 18.9 97 0.3 NE 4 9 2 5 1016.7 - 18.0
02/08:00pm 19.4 21.3 19.0 98 0.3 ENE 7 11 4 6 1016.8 - 18.0
02/07:47pm 19.4 21.3 19.0 98 0.3 E 7 9 4 5 1016.8 - 18.0
02/07:30pm 19.3 21.4 19.0 98 0.2 SE 6 7 3 4 1016.6 - 18.0
02/07:00pm 19.4 21.5 18.9 97 0.3 WSW 6 9 3 5 1016.9 - 18.0
02/06:51pm 19.4 21.3 18.9 97 0.3 W 7 13 4 7 1017.1 - 18.0
02/06:30pm 19.3 20.4 18.8 97 0.3 NNE 11 17 6 9 1015.6 - 18.0
02/06:00pm 19.3 21.2 18.6 96 0.4 NNW 6 11 3 6 1016.0 1015.7 17.6
02/05:30pm 19.2 20.5 18.5 96 0.4 SW 9 13 5 7 1016.5 - 17.6
02/05:00pm 19.3 20.1 18.2 93 0.7 NNW 11 15 6 8 1016.2 - 16.4
02/04:30pm 19.5 20.3 18.2 92 0.8 NNW 11 15 6 8 1016.7 - 14.8
02/04:21pm 19.5 20.4 18.4 93 0.7 WNW 11 15 6 8 1016.8 - 14.2
02/04:00pm 19.8 21.0 19.1 96 0.4 W 11 17 6 9 1016.6 - 13.2
02/03:59pm 19.9 21.1 19.1 95 0.5 W 11 17 6 9 1016.7 - 13.0
02/03:30pm 19.9 20.8 19.2 96 0.4 W 13 17 7 9 1016.9 - 9.4
02/03:00pm 19.8 20.9 18.9 94 0.6 W 11 15 6 8 1016.3 1016.0 6.4
02/02:35pm 20.2 20.0 18.5 90 1.1 W 17 28 9 15 1016.2 - 3.6
02/02:30pm 20.6 20.5 18.7 89 1.2 WSW 17 32 9 17 1016.0 - 2.6
02/02:00pm 21.8 23.7 19.8 88 1.3 WNW 9 13 5 7 1015.5 - 0.8
02/01:30pm 21.8 24.0 19.2 85 1.7 NNW 6 7 3 4 1015.2 - 0.8
02/01:00pm 21.5 23.2 19.3 87 1.4 N 9 15 5 8 1015.5 - 0.8
02/12:30pm 21.2 22.0 19.0 87 1.4 NNW 13 17 7 9 1016.0 - 0.8
02/12:00pm 21.4 21.8 18.2 82 2.0 NNW 13 17 7 9 1016.9 1016.6 0.6
02/11:30am 21.2 21.8 17.7 80 2.2 NNE 11 13 6 7 1017.2 - 0.2
02/11:00am 20.7 22.0 17.6 82 1.9 N 7 11 4 6 1017.7 - 0.2
02/10:30am 20.2 21.6 17.3 83 1.8 S 6 13 3 7 1017.7 - 0.2
02/10:00am 20.7 18.3 16.4 76 2.6 SW 24 41 13 22 1018.4 - 0.2
02/09:52am 22.9 18.7 13.6 55 5.5 WSW 28 41 15 22 1017.9 - 0.0
02/09:30am 23.5 22.0 13.0 51 6.1 NE 13 15 7 8 1016.6 - 0.0
02/09:00am 22.8 21.8 13.4 55 5.5 ENE 11 17 6 9 1016.3 1016.0 0.0
02/08:30am 22.1 20.8 13.7 59 4.9 E 13 15 7 8 1016.4 - 0.0
02/08:00am 20.9 20.2 14.2 65 3.9 SE 11 11 6 6 1016.5 - 0.0
02/07:30am 20.9 19.8 13.1 61 4.5 S 11 13 6 7 1016.6 - 0.0
02/07:00am 20.6 19.5 13.0 61 4.4 SSE 11 13 6 7 1016.2 - 0.0
02/06:30am 20.1 18.5 12.8 63 4.2 S 13 20 7 11 1015.8 - 0.0
02/06:00am 20.4 19.6 13.0 62 4.3 E 9 11 5 6 1015.3 1015.0 0.0
02/05:30am 19.4 19.0 13.1 67 3.6 E 7 9 4 5 1015.1 - 0.0
02/05:00am 18.3 17.6 13.2 72 2.9 ENE 9 11 5 6 1015.0 - 0.0
02/04:30am 18.0 18.0 13.6 75 2.5 ESE 6 7 3 4 1014.9 - 0.0
02/04:00am 18.6 18.5 13.8 73 2.8 ENE 7 9 4 5 1015.0 - 0.0
02/03:30am 18.7 19.0 13.4 71 3.0 SE 4 6 2 3 1015.2 - 0.0
02/03:00am 19.4 19.4 13.5 68 3.4 E 6 7 3 4 1015.4 1015.1 0.0
02/02:30am 20.1 19.9 13.7 66 3.7 E 7 7 4 4 1015.4 - 0.0
02/02:00am 20.7 20.5 13.7 64 4.1 ENE 7 9 4 5 1015.8 - 0.0
02/01:30am 20.8 20.3 13.7 64 4.1 E 9 11 5 6 1016.1 - 0.0
02/01:00am 20.6 20.1 13.7 64 4.0 ESE 9 11 5 6 1016.5 - 0.0
02/12:30am 20.0 19.9 13.8 67 3.6 ESE 7 9 4 5 1016.9 - 0.0
02/12:00am 20.1 20.9 13.8 67 3.7 SSE 2 7 1 4 1017.2 1016.9 0.0
 
Date/Time
EST
Temp
°C
App
Temp
°C
Dew
Point
Rel
Hum
%
Delta-T
°C
Wind Press
QNH
hPa
Press
MSL
hPa
Rain
since 9 am
mm
Dir
 
Spd
km/h
Gust
km/h
Spd
kts
Gust
kts
01/11:30pm 20.5 21.1 14.2 67 3.7 SSE 4 7 2 4 1017.6 - 0.0
01/11:00pm 20.8 20.9 13.8 64 4.1 SSE 6 7 3 4 1017.7 - 0.0
01/10:30pm 21.2 22.5 14.0 63 4.2 CALM 0 0 0 0 1017.7 - 0.0
01/10:00pm 21.9 22.9 14.4 62 4.5 ESE 2 6 1 3 1017.6 - 0.0
01/09:30pm 22.3 22.2 14.0 59 4.9 E 7 9 4 5 1017.7 - 0.0
01/09:00pm 23.0 23.0 14.1 57 5.3 SE 7 7 4 4 1017.8 1017.5 0.0
01/08:30pm 23.9 23.5 14.2 54 5.8 E 9 11 5 6 1017.7 - 0.0
01/08:00pm 24.5 23.7 13.9 51 6.3 ESE 11 13 6 7 1017.6 - 0.0
01/07:30pm 24.9 23.3 13.8 50 6.6 E 15 19 8 10 1017.2 - 0.0
01/07:00pm 25.2 23.2 13.8 49 6.8 E 17 22 9 12 1016.9 - 0.0
01/06:30pm 25.2 23.3 14.1 50 6.7 SE 17 22 9 12 1016.6 - 0.0

Other Formats:

Comma delimited format used in spreadsheet applications
http://www.bom.gov.au/fwo/IDQ60801/IDQ60801.94510.axf

JavaScript Object Notation format (JSON) in row-major order
http://www.bom.gov.au/fwo/IDQ60801/IDQ60801.94510.json